sensor_id;sensor_type;location;lat;lon;timestamp;temperature;humidity
7196;DHT22;3639;51.308;5.624;2023-06-10T00:01:54;22.70;94.90
7196;DHT22;3639;51.308;5.624;2023-06-10T00:04:23;22.70;94.80
7196;DHT22;3639;51.308;5.624;2023-06-10T00:06:49;22.70;94.80
7196;DHT22;3639;51.308;5.624;2023-06-10T00:09:15;22.70;94.60
7196;DHT22;3639;51.308;5.624;2023-06-10T00:11:41;22.60;94.90
7196;DHT22;3639;51.308;5.624;2023-06-10T00:14:07;22.60;95.10
7196;DHT22;3639;51.308;5.624;2023-06-10T00:16:33;22.60;95.30
7196;DHT22;3639;51.308;5.624;2023-06-10T00:19:00;22.60;95.50
7196;DHT22;3639;51.308;5.624;2023-06-10T00:21:30;22.60;95.50
7196;DHT22;3639;51.308;5.624;2023-06-10T00:24:11;22.60;95.70
7196;DHT22;3639;51.308;5.624;2023-06-10T00:26:40;22.60;95.60
7196;DHT22;3639;51.308;5.624;2023-06-10T00:29:06;22.50;95.10
7196;DHT22;3639;51.308;5.624;2023-06-10T00:31:34;22.50;95.60
7196;DHT22;3639;51.308;5.624;2023-06-10T00:33:59;22.40;95.50
7196;DHT22;3639;51.308;5.624;2023-06-10T00:36:25;22.40;95.70
7196;DHT22;3639;51.308;5.624;2023-06-10T00:38:50;22.40;95.90
7196;DHT22;3639;51.308;5.624;2023-06-10T00:41:16;22.40;96.00
7196;DHT22;3639;51.308;5.624;2023-06-10T00:43:41;22.40;96.20
7196;DHT22;3639;51.308;5.624;2023-06-10T00:46:07;22.30;96.20
7196;DHT22;3639;51.308;5.624;2023-06-10T00:48:33;22.30;96.30
7196;DHT22;3639;51.308;5.624;2023-06-10T00:50:59;22.30;96.40
7196;DHT22;3639;51.308;5.624;2023-06-10T00:53:26;22.20;96.00
7196;DHT22;3639;51.308;5.624;2023-06-10T00:55:53;22.10;96.00
7196;DHT22;3639;51.308;5.624;2023-06-10T00:58:18;22.00;96.00
7196;DHT22;3639;51.308;5.624;2023-06-10T01:00:44;21.90;96.40
7196;DHT22;3639;51.308;5.624;2023-06-10T01:03:10;21.80;96.70
7196;DHT22;3639;51.308;5.624;2023-06-10T01:05:38;21.80;96.90
7196;DHT22;3639;51.308;5.624;2023-06-10T01:10:43;21.70;97.00
7196;DHT22;3639;51.308;5.624;2023-06-10T01:13:11;21.60;97.00
7196;DHT22;3639;51.308;5.624;2023-06-10T01:15:38;21.50;97.20
7196;DHT22;3639;51.308;5.624;2023-06-10T01:18:06;21.50;97.40
7196;DHT22;3639;51.308;5.624;2023-06-10T01:20:34;21.40;97.50
7196;DHT22;3639;51.308;5.624;2023-06-10T01:23:02;21.30;97.20
7196;DHT22;3639;51.308;5.624;2023-06-10T01:25:29;21.20;97.40
7196;DHT22;3639;51.308;5.624;2023-06-10T01:28:06;21.20;97.50
7196;DHT22;3639;51.308;5.624;2023-06-10T01:30:56;21.00;97.50
7196;DHT22;3639;51.308;5.624;2023-06-10T01:33:28;21.00;97.70
7196;DHT22;3639;51.308;5.624;2023-06-10T01:35:57;20.90;97.90
7196;DHT22;3639;51.308;5.624;2023-06-10T01:38:25;20.90;98.00
7196;DHT22;3639;51.308;5.624;2023-06-10T01:40:53;20.80;98.10
7196;DHT22;3639;51.308;5.624;2023-06-10T01:43:20;20.80;98.10
7196;DHT22;3639;51.308;5.624;2023-06-10T01:45:46;20.70;98.20
7196;DHT22;3639;51.308;5.624;2023-06-10T01:48:12;20.60;98.40
7196;DHT22;3639;51.308;5.624;2023-06-10T01:50:37;20.50;98.60
7196;DHT22;3639;51.308;5.624;2023-06-10T01:53:04;20.50;98.60
7196;DHT22;3639;51.308;5.624;2023-06-10T01:55:30;20.40;98.80
7196;DHT22;3639;51.308;5.624;2023-06-10T01:57:56;20.40;98.90
7196;DHT22;3639;51.308;5.624;2023-06-10T02:00:22;20.30;99.10
7196;DHT22;3639;51.308;5.624;2023-06-10T02:02:47;20.20;99.20
7196;DHT22;3639;51.308;5.624;2023-06-10T02:05:13;20.10;99.30
7196;DHT22;3639;51.308;5.624;2023-06-10T02:07:38;20.10;99.40
7196;DHT22;3639;51.308;5.624;2023-06-10T02:10:05;20.00;99.60
7196;DHT22;3639;51.308;5.624;2023-06-10T02:12:30;20.00;99.70
7196;DHT22;3639;51.308;5.624;2023-06-10T02:14:56;19.90;99.80
7196;DHT22;3639;51.308;5.624;2023-06-10T02:17:22;19.90;99.90
7196;DHT22;3639;51.308;5.624;2023-06-10T02:19:48;19.80;99.90
7196;DHT22;3639;51.308;5.624;2023-06-10T02:22:21;19.80;99.90
7196;DHT22;3639;51.308;5.624;2023-06-10T02:24:47;19.70;99.90
7196;DHT22;3639;51.308;5.624;2023-06-10T02:27:14;19.60;99.90
7196;DHT22;3639;51.308;5.624;2023-06-10T02:29:39;19.60;99.90
7196;DHT22;3639;51.308;5.624;2023-06-10T02:32:07;19.60;99.90
7196;DHT22;3639;51.308;5.624;2023-06-10T02:34:32;19.50;99.90
7196;DHT22;3639;51.308;5.624;2023-06-10T02:36:59;19.50;99.90
7196;DHT22;3639;51.308;5.624;2023-06-10T02:39:24;19.50;99.90
7196;DHT22;3639;51.308;5.624;2023-06-10T02:41:50;19.50;99.90
7196;DHT22;3639;51.308;5.624;2023-06-10T02:44:18;19.50;99.90
7196;DHT22;3639;51.308;5.624;2023-06-10T02:46:43;19.40;99.90
7196;DHT22;3639;51.308;5.624;2023-06-10T02:49:09;19.40;99.90
7196;DHT22;3639;51.308;5.624;2023-06-10T02:51:35;19.40;99.90
7196;DHT22;3639;51.308;5.624;2023-06-10T02:54:01;19.30;99.90
7196;DHT22;3639;51.308;5.624;2023-06-10T02:56:27;19.30;99.90
7196;DHT22;3639;51.308;5.624;2023-06-10T02:58:52;19.20;99.90
7196;DHT22;3639;51.308;5.624;2023-06-10T03:01:18;19.10;99.90
7196;DHT22;3639;51.308;5.624;2023-06-10T03:03:44;19.20;99.90
7196;DHT22;3639;51.308;5.624;2023-06-10T03:06:12;19.10;99.90
7196;DHT22;3639;51.308;5.624;2023-06-10T03:08:38;19.10;99.90
7196;DHT22;3639;51.308;5.624;2023-06-10T03:11:04;19.10;99.90
7196;DHT22;3639;51.308;5.624;2023-06-10T03:13:29;19.00;99.90
7196;DHT22;3639;51.308;5.624;2023-06-10T03:15:55;19.00;99.90
7196;DHT22;3639;51.308;5.624;2023-06-10T03:18:21;18.90;99.90
7196;DHT22;3639;51.308;5.624;2023-06-10T03:20:48;18.90;99.90
7196;DHT22;3639;51.308;5.624;2023-06-10T03:23:14;18.80;99.90
7196;DHT22;3639;51.308;5.624;2023-06-10T03:25:41;18.80;99.90
7196;DHT22;3639;51.308;5.624;2023-06-10T03:28:06;18.80;99.90
7196;DHT22;3639;51.308;5.624;2023-06-10T03:30:32;18.80;99.90
7196;DHT22;3639;51.308;5.624;2023-06-10T03:32:57;18.70;99.90
7196;DHT22;3639;51.308;5.624;2023-06-10T03:35:23;18.70;99.90
7196;DHT22;3639;51.308;5.624;2023-06-10T03:37:48;18.80;99.90
7196;DHT22;3639;51.308;5.624;2023-06-10T03:40:14;18.70;99.90
7196;DHT22;3639;51.308;5.624;2023-06-10T03:42:40;18.70;99.90
7196;DHT22;3639;51.308;5.624;2023-06-10T03:45:06;18.70;99.90
7196;DHT22;3639;51.308;5.624;2023-06-10T03:47:35;18.70;99.90
7196;DHT22;3639;51.308;5.624;2023-06-10T03:50:04;18.70;99.90
7196;DHT22;3639;51.308;5.624;2023-06-10T03:52:30;18.70;99.90
7196;DHT22;3639;51.308;5.624;2023-06-10T03:54:56;18.70;99.90
7196;DHT22;3639;51.308;5.624;2023-06-10T03:57:21;18.70;99.90
7196;DHT22;3639;51.308;5.624;2023-06-10T03:59:47;18.70;99.90
7196;DHT22;3639;51.308;5.624;2023-06-10T04:02:12;18.70;99.90
7196;DHT22;3639;51.308;5.624;2023-06-10T04:04:38;18.60;99.90
7196;DHT22;3639;51.308;5.624;2023-06-10T04:07:06;18.70;99.90
7196;DHT22;3639;51.308;5.624;2023-06-10T04:09:33;18.60;99.90
7196;DHT22;3639;51.308;5.624;2023-06-10T04:11:59;18.60;99.90
7196;DHT22;3639;51.308;5.624;2023-06-10T04:14:24;18.60;99.90
7196;DHT22;3639;51.308;5.624;2023-06-10T04:16:50;18.70;99.90
7196;DHT22;3639;51.308;5.624;2023-06-10T04:19:16;18.60;99.90
7196;DHT22;3639;51.308;5.624;2023-06-10T04:21:42;18.60;99.90
7196;DHT22;3639;51.308;5.624;2023-06-10T04:24:07;18.60;99.90
7196;DHT22;3639;51.308;5.624;2023-06-10T04:26:35;18.60;99.90
7196;DHT22;3639;51.308;5.624;2023-06-10T04:29:01;18.70;99.90
7196;DHT22;3639;51.308;5.624;2023-06-10T04:31:26;18.60;99.90
7196;DHT22;3639;51.308;5.624;2023-06-10T04:33:53;18.70;99.90
7196;DHT22;3639;51.308;5.624;2023-06-10T04:36:18;18.70;99.90
7196;DHT22;3639;51.308;5.624;2023-06-10T04:38:44;18.70;99.90
7196;DHT22;3639;51.308;5.624;2023-06-10T04:41:10;18.70;99.90
7196;DHT22;3639;51.308;5.624;2023-06-10T04:43:35;18.80;99.90
7196;DHT22;3639;51.308;5.624;2023-06-10T04:46:02;18.80;99.90
7196;DHT22;3639;51.308;5.624;2023-06-10T04:48:27;18.80;99.90
7196;DHT22;3639;51.308;5.624;2023-06-10T04:50:53;18.90;99.90
7196;DHT22;3639;51.308;5.624;2023-06-10T04:53:18;18.90;99.90
7196;DHT22;3639;51.308;5.624;2023-06-10T04:55:44;18.90;99.90
7196;DHT22;3639;51.308;5.624;2023-06-10T04:58:10;19.00;99.90
7196;DHT22;3639;51.308;5.624;2023-06-10T05:00:35;19.00;99.90
7196;DHT22;3639;51.308;5.624;2023-06-10T05:03:01;19.00;99.90
7196;DHT22;3639;51.308;5.624;2023-06-10T05:05:27;19.00;99.90
7196;DHT22;3639;51.308;5.624;2023-06-10T05:07:52;19.10;99.90
7196;DHT22;3639;51.308;5.624;2023-06-10T05:10:18;19.20;99.90
7196;DHT22;3639;51.308;5.624;2023-06-10T05:12:43;19.20;99.90
7196;DHT22;3639;51.308;5.624;2023-06-10T05:15:09;19.20;99.90
7196;DHT22;3639;51.308;5.624;2023-06-10T05:17:35;19.30;99.90
7196;DHT22;3639;51.308;5.624;2023-06-10T05:20:01;19.40;99.90
7196;DHT22;3639;51.308;5.624;2023-06-10T05:22:27;19.40;99.90
7196;DHT22;3639;51.308;5.624;2023-06-10T05:24:53;19.50;99.90
7196;DHT22;3639;51.308;5.624;2023-06-10T05:27:18;19.50;99.90
7196;DHT22;3639;51.308;5.624;2023-06-10T05:29:44;19.60;99.90
7196;DHT22;3639;51.308;5.624;2023-06-10T05:32:11;19.70;99.90
7196;DHT22;3639;51.308;5.624;2023-06-10T05:34:36;19.80;99.90
7196;DHT22;3639;51.308;5.624;2023-06-10T05:37:02;19.80;99.90
7196;DHT22;3639;51.308;5.624;2023-06-10T05:39:28;19.90;99.90
7196;DHT22;3639;51.308;5.624;2023-06-10T05:41:54;20.00;99.90
7196;DHT22;3639;51.308;5.624;2023-06-10T05:44:19;20.10;99.90
7196;DHT22;3639;51.308;5.624;2023-06-10T05:46:45;20.10;99.90
7196;DHT22;3639;51.308;5.624;2023-06-10T05:49:11;20.20;99.90
7196;DHT22;3639;51.308;5.624;2023-06-10T05:51:36;20.30;99.90
7196;DHT22;3639;51.308;5.624;2023-06-10T05:54:02;20.40;99.90
7196;DHT22;3639;51.308;5.624;2023-06-10T05:56:28;20.40;99.90
7196;DHT22;3639;51.308;5.624;2023-06-10T05:58:54;20.50;99.90
7196;DHT22;3639;51.308;5.624;2023-06-10T06:01:19;20.60;99.90
7196;DHT22;3639;51.308;5.624;2023-06-10T06:03:45;20.60;99.90
7196;DHT22;3639;51.308;5.624;2023-06-10T06:06:10;20.70;99.90
7196;DHT22;3639;51.308;5.624;2023-06-10T06:08:36;20.70;99.90
7196;DHT22;3639;51.308;5.624;2023-06-10T06:11:02;20.80;99.90
7196;DHT22;3639;51.308;5.624;2023-06-10T06:13:27;20.90;99.90
7196;DHT22;3639;51.308;5.624;2023-06-10T06:15:53;20.90;99.90
7196;DHT22;3639;51.308;5.624;2023-06-10T06:18:18;21.00;99.90
7196;DHT22;3639;51.308;5.624;2023-06-10T06:20:44;21.20;99.90
7196;DHT22;3639;51.308;5.624;2023-06-10T06:23:10;21.30;99.90
7196;DHT22;3639;51.308;5.624;2023-06-10T06:25:36;21.40;99.90
7196;DHT22;3639;51.308;5.624;2023-06-10T06:28:06;21.60;99.90
7196;DHT22;3639;51.308;5.624;2023-06-10T06:30:31;21.70;99.90
7196;DHT22;3639;51.308;5.624;2023-06-10T06:32:57;21.90;99.90
7196;DHT22;3639;51.308;5.624;2023-06-10T06:35:22;22.10;99.90
7196;DHT22;3639;51.308;5.624;2023-06-10T06:37:48;22.20;99.90
7196;DHT22;3639;51.308;5.624;2023-06-10T06:40:13;22.40;99.90
7196;DHT22;3639;51.308;5.624;2023-06-10T06:42:39;22.50;99.90
7196;DHT22;3639;51.308;5.624;2023-06-10T06:45:05;22.40;99.90
7196;DHT22;3639;51.308;5.624;2023-06-10T06:47:31;22.50;99.90
7196;DHT22;3639;51.308;5.624;2023-06-10T06:49:56;22.50;99.90
7196;DHT22;3639;51.308;5.624;2023-06-10T06:52:22;22.60;99.90
7196;DHT22;3639;51.308;5.624;2023-06-10T06:54:48;22.70;99.90
7196;DHT22;3639;51.308;5.624;2023-06-10T06:57:14;22.70;99.90
7196;DHT22;3639;51.308;5.624;2023-06-10T06:59:39;22.80;99.90
7196;DHT22;3639;51.308;5.624;2023-06-10T07:02:05;22.90;99.90
7196;DHT22;3639;51.308;5.624;2023-06-10T07:04:31;22.90;99.90
7196;DHT22;3639;51.308;5.624;2023-06-10T07:06:56;23.10;99.90
7196;DHT22;3639;51.308;5.624;2023-06-10T07:09:22;23.30;99.90
7196;DHT22;3639;51.308;5.624;2023-06-10T07:11:48;23.30;99.90
7196;DHT22;3639;51.308;5.624;2023-06-10T07:14:13;23.50;99.90
7196;DHT22;3639;51.308;5.624;2023-06-10T07:16:39;23.70;99.90
7196;DHT22;3639;51.308;5.624;2023-06-10T07:19:05;23.80;99.70
7196;DHT22;3639;51.308;5.624;2023-06-10T07:21:30;24.00;99.60
7196;DHT22;3639;51.308;5.624;2023-06-10T07:23:57;24.00;98.20
7196;DHT22;3639;51.308;5.624;2023-06-10T07:26:23;24.00;98.10
7196;DHT22;3639;51.308;5.624;2023-06-10T07:28:48;24.10;98.10
7196;DHT22;3639;51.308;5.624;2023-06-10T07:31:14;24.20;98.30
7196;DHT22;3639;51.308;5.624;2023-06-10T07:33:40;24.30;97.70
7196;DHT22;3639;51.308;5.624;2023-06-10T07:36:06;24.40;97.60
7196;DHT22;3639;51.308;5.624;2023-06-10T07:38:31;24.40;97.70
7196;DHT22;3639;51.308;5.624;2023-06-10T07:40:57;24.60;97.60
7196;DHT22;3639;51.308;5.624;2023-06-10T07:43:24;24.70;97.50
7196;DHT22;3639;51.308;5.624;2023-06-10T07:45:49;24.70;97.30
7196;DHT22;3639;51.308;5.624;2023-06-10T07:48:15;24.90;97.20
7196;DHT22;3639;51.308;5.624;2023-06-10T07:50:41;25.20;96.90
7196;DHT22;3639;51.308;5.624;2023-06-10T07:53:06;25.30;96.40
7196;DHT22;3639;51.308;5.624;2023-06-10T07:55:32;25.30;96.50
7196;DHT22;3639;51.308;5.624;2023-06-10T07:57:57;25.30;96.40
7196;DHT22;3639;51.308;5.624;2023-06-10T08:00:23;25.30;96.80
7196;DHT22;3639;51.308;5.624;2023-06-10T08:02:49;25.40;96.00
7196;DHT22;3639;51.308;5.624;2023-06-10T08:05:15;25.50;95.70
7196;DHT22;3639;51.308;5.624;2023-06-10T08:07:41;25.50;95.50
7196;DHT22;3639;51.308;5.624;2023-06-10T08:10:08;25.60;95.80
7196;DHT22;3639;51.308;5.624;2023-06-10T08:12:34;25.70;95.60
7196;DHT22;3639;51.308;5.624;2023-06-10T08:15:00;25.70;95.30
7196;DHT22;3639;51.308;5.624;2023-06-10T08:17:26;25.70;94.80
7196;DHT22;3639;51.308;5.624;2023-06-10T08:19:52;25.80;94.40
7196;DHT22;3639;51.308;5.624;2023-06-10T08:22:18;25.80;95.20
7196;DHT22;3639;51.308;5.624;2023-06-10T08:24:44;26.10;95.80
7196;DHT22;3639;51.308;5.624;2023-06-10T08:27:09;26.40;94.80
7196;DHT22;3639;51.308;5.624;2023-06-10T08:29:36;26.50;93.60
7196;DHT22;3639;51.308;5.624;2023-06-10T08:32:01;26.40;93.60
7196;DHT22;3639;51.308;5.624;2023-06-10T08:34:27;26.50;92.70
7196;DHT22;3639;51.308;5.624;2023-06-10T08:36:53;26.60;93.20
7196;DHT22;3639;51.308;5.624;2023-06-10T08:39:21;26.70;93.00
7196;DHT22;3639;51.308;5.624;2023-06-10T08:44:29;26.40;92.50
7196;DHT22;3639;51.308;5.624;2023-06-10T08:47:00;26.30;92.90
7196;DHT22;3639;51.308;5.624;2023-06-10T08:49:30;26.30;92.90
7196;DHT22;3639;51.308;5.624;2023-06-10T08:51:59;26.40;92.80
7196;DHT22;3639;51.308;5.624;2023-06-10T08:54:28;26.50;92.40
7196;DHT22;3639;51.308;5.624;2023-06-10T08:56:55;26.50;92.60
7196;DHT22;3639;51.308;5.624;2023-06-10T08:59:23;26.60;92.60
7196;DHT22;3639;51.308;5.624;2023-06-10T09:01:50;26.80;92.40
7196;DHT22;3639;51.308;5.624;2023-06-10T09:04:16;27.00;91.60
7196;DHT22;3639;51.308;5.624;2023-06-10T09:06:43;27.10;91.80
7196;DHT22;3639;51.308;5.624;2023-06-10T09:09:10;27.30;91.50
7196;DHT22;3639;51.308;5.624;2023-06-10T09:11:37;27.50;90.80
7196;DHT22;3639;51.308;5.624;2023-06-10T09:14:03;27.50;91.00
7196;DHT22;3639;51.308;5.624;2023-06-10T09:16:28;27.40;90.90
7196;DHT22;3639;51.308;5.624;2023-06-10T09:18:54;27.40;90.40
7196;DHT22;3639;51.308;5.624;2023-06-10T09:21:23;27.40;91.20
7196;DHT22;3639;51.308;5.624;2023-06-10T09:23:49;27.60;90.40
7196;DHT22;3639;51.308;5.624;2023-06-10T09:26:15;27.80;90.00
7196;DHT22;3639;51.308;5.624;2023-06-10T09:28:47;27.90;90.20
7196;DHT22;3639;51.308;5.624;2023-06-10T09:31:13;28.10;88.60
7196;DHT22;3639;51.308;5.624;2023-06-10T09:33:40;28.10;87.60
7196;DHT22;3639;51.308;5.624;2023-06-10T09:36:06;28.20;88.30
7196;DHT22;3639;51.308;5.624;2023-06-10T09:38:35;28.20;87.30
7196;DHT22;3639;51.308;5.624;2023-06-10T09:41:01;28.10;87.50
7196;DHT22;3639;51.308;5.624;2023-06-10T09:43:40;28.20;87.00
7196;DHT22;3639;51.308;5.624;2023-06-10T09:46:06;28.10;86.70
7196;DHT22;3639;51.308;5.624;2023-06-10T09:48:35;28.40;87.90
7196;DHT22;3639;51.308;5.624;2023-06-10T09:51:09;28.60;87.30
7196;DHT22;3639;51.308;5.624;2023-06-10T09:53:35;28.50;87.10
7196;DHT22;3639;51.308;5.624;2023-06-10T09:56:01;28.50;87.20
7196;DHT22;3639;51.308;5.624;2023-06-10T09:58:39;28.50;85.90
7196;DHT22;3639;51.308;5.624;2023-06-10T10:01:12;28.60;83.40
7196;DHT22;3639;51.308;5.624;2023-06-10T10:03:50;28.60;84.50
7196;DHT22;3639;51.308;5.624;2023-06-10T10:06:17;28.60;84.70
7196;DHT22;3639;51.308;5.624;2023-06-10T10:08:45;28.60;84.80
7196;DHT22;3639;51.308;5.624;2023-06-10T10:11:11;28.70;83.40
7196;DHT22;3639;51.308;5.624;2023-06-10T10:13:38;28.70;85.00
7196;DHT22;3639;51.308;5.624;2023-06-10T10:16:14;28.80;82.00
7196;DHT22;3639;51.308;5.624;2023-06-10T10:18:43;28.70;81.90
7196;DHT22;3639;51.308;5.624;2023-06-10T10:21:12;28.80;83.10
7196;DHT22;3639;51.308;5.624;2023-06-10T10:26:17;29.10;80.50
7196;DHT22;3639;51.308;5.624;2023-06-10T10:29:14;29.10;80.50
7196;DHT22;3639;51.308;5.624;2023-06-10T10:31:42;29.20;80.00
7196;DHT22;3639;51.308;5.624;2023-06-10T10:34:15;29.10;80.30
7196;DHT22;3639;51.308;5.624;2023-06-10T10:36:42;29.10;80.30
7196;DHT22;3639;51.308;5.624;2023-06-10T10:39:08;29.20;81.20
7196;DHT22;3639;51.308;5.624;2023-06-10T10:41:36;29.20;80.00
7196;DHT22;3639;51.308;5.624;2023-06-10T10:44:03;29.30;79.30
7196;DHT22;3639;51.308;5.624;2023-06-10T10:46:42;29.10;80.80
7196;DHT22;3639;51.308;5.624;2023-06-10T10:49:09;29.30;79.80
7196;DHT22;3639;51.308;5.624;2023-06-10T10:51:35;29.50;80.10
7196;DHT22;3639;51.308;5.624;2023-06-10T10:54:14;29.60;77.50
7196;DHT22;3639;51.308;5.624;2023-06-10T10:57:10;29.50;77.60
7196;DHT22;3639;51.308;5.624;2023-06-10T10:59:51;29.80;77.50
7196;DHT22;3639;51.308;5.624;2023-06-10T11:02:18;30.00;73.50
7196;DHT22;3639;51.308;5.624;2023-06-10T11:04:48;30.00;75.20
7196;DHT22;3639;51.308;5.624;2023-06-10T11:07:14;29.80;75.80
7196;DHT22;3639;51.308;5.624;2023-06-10T11:10:10;30.00;74.90
7196;DHT22;3639;51.308;5.624;2023-06-10T11:15:29;30.20;72.80
7196;DHT22;3639;51.308;5.624;2023-06-10T11:18:25;30.30;74.80
7196;DHT22;3639;51.308;5.624;2023-06-10T11:28:39;30.30;72.80
7196;DHT22;3639;51.308;5.624;2023-06-10T11:31:05;30.20;72.20
7196;DHT22;3639;51.308;5.624;2023-06-10T11:33:31;30.30;72.10
7196;DHT22;3639;51.308;5.624;2023-06-10T11:35:57;30.40;70.90
7196;DHT22;3639;51.308;5.624;2023-06-10T11:38:24;30.20;71.30
7196;DHT22;3639;51.308;5.624;2023-06-10T11:40:50;30.30;73.10
7196;DHT22;3639;51.308;5.624;2023-06-10T11:43:19;30.50;72.20
7196;DHT22;3639;51.308;5.624;2023-06-10T11:45:45;30.50;71.00
7196;DHT22;3639;51.308;5.624;2023-06-10T11:48:12;30.60;71.40
7196;DHT22;3639;51.308;5.624;2023-06-10T11:50:38;31.00;70.00
7196;DHT22;3639;51.308;5.624;2023-06-10T11:53:04;31.30;67.30
7196;DHT22;3639;51.308;5.624;2023-06-10T11:55:46;31.20;66.40
7196;DHT22;3639;51.308;5.624;2023-06-10T11:58:20;31.20;67.60
7196;DHT22;3639;51.308;5.624;2023-06-10T12:00:50;31.00;65.60
7196;DHT22;3639;51.308;5.624;2023-06-10T12:03:17;30.80;66.50
7196;DHT22;3639;51.308;5.624;2023-06-10T12:06:00;30.80;68.80
7196;DHT22;3639;51.308;5.624;2023-06-10T12:08:26;30.80;67.10
7196;DHT22;3639;51.308;5.624;2023-06-10T12:10:53;30.90;68.00
7196;DHT22;3639;51.308;5.624;2023-06-10T12:13:18;30.90;66.40
7196;DHT22;3639;51.308;5.624;2023-06-10T12:15:44;30.90;69.20
7196;DHT22;3639;51.308;5.624;2023-06-10T12:18:21;31.10;65.40
7196;DHT22;3639;51.308;5.624;2023-06-10T12:20:47;31.00;64.80
7196;DHT22;3639;51.308;5.624;2023-06-10T12:23:14;31.00;66.20
7196;DHT22;3639;51.308;5.624;2023-06-10T12:25:50;31.10;65.10
7196;DHT22;3639;51.308;5.624;2023-06-10T12:28:23;31.20;63.10
7196;DHT22;3639;51.308;5.624;2023-06-10T12:30:49;31.40;63.00
7196;DHT22;3639;51.308;5.624;2023-06-10T12:33:18;31.60;60.50
7196;DHT22;3639;51.308;5.624;2023-06-10T12:35:51;31.60;60.20
7196;DHT22;3639;51.308;5.624;2023-06-10T12:38:25;31.50;61.20
7196;DHT22;3639;51.308;5.624;2023-06-10T12:40:52;31.60;60.70
7196;DHT22;3639;51.308;5.624;2023-06-10T12:43:22;31.60;61.30
7196;DHT22;3639;51.308;5.624;2023-06-10T12:45:48;31.70;61.80
7196;DHT22;3639;51.308;5.624;2023-06-10T12:48:24;31.60;61.10
7196;DHT22;3639;51.308;5.624;2023-06-10T12:50:55;31.40;61.70
7196;DHT22;3639;51.308;5.624;2023-06-10T12:53:21;31.50;61.70
7196;DHT22;3639;51.308;5.624;2023-06-10T12:55:49;31.60;60.30
7196;DHT22;3639;51.308;5.624;2023-06-10T12:58:15;31.60;60.60
7196;DHT22;3639;51.308;5.624;2023-06-10T13:00:42;31.70;61.00
7196;DHT22;3639;51.308;5.624;2023-06-10T13:03:08;31.60;60.80
7196;DHT22;3639;51.308;5.624;2023-06-10T13:05:38;31.30;61.70
7196;DHT22;3639;51.308;5.624;2023-06-10T13:08:08;31.30;61.90
7196;DHT22;3639;51.308;5.624;2023-06-10T13:10:35;31.40;62.70
7196;DHT22;3639;51.308;5.624;2023-06-10T13:13:01;31.80;63.10
7196;DHT22;3639;51.308;5.624;2023-06-10T13:15:27;31.70;59.90
7196;DHT22;3639;51.308;5.624;2023-06-10T13:17:53;31.60;58.80
7196;DHT22;3639;51.308;5.624;2023-06-10T13:20:19;31.50;59.00
7196;DHT22;3639;51.308;5.624;2023-06-10T13:22:46;31.40;59.10
7196;DHT22;3639;51.308;5.624;2023-06-10T13:25:12;31.30;58.30
7196;DHT22;3639;51.308;5.624;2023-06-10T13:27:39;31.40;58.50
7196;DHT22;3639;51.308;5.624;2023-06-10T13:30:09;31.60;60.00
7196;DHT22;3639;51.308;5.624;2023-06-10T13:32:35;31.60;59.40
7196;DHT22;3639;51.308;5.624;2023-06-10T13:35:01;31.60;60.50
7196;DHT22;3639;51.308;5.624;2023-06-10T13:37:27;31.40;58.90
7196;DHT22;3639;51.308;5.624;2023-06-10T13:39:53;31.30;60.50
7196;DHT22;3639;51.308;5.624;2023-06-10T13:42:19;31.20;60.30
7196;DHT22;3639;51.308;5.624;2023-06-10T13:44:45;31.30;60.80
7196;DHT22;3639;51.308;5.624;2023-06-10T13:47:11;31.30;59.70
7196;DHT22;3639;51.308;5.624;2023-06-10T13:49:36;31.40;60.60
7196;DHT22;3639;51.308;5.624;2023-06-10T13:52:02;31.60;63.20
7196;DHT22;3639;51.308;5.624;2023-06-10T13:54:28;31.80;58.90
7196;DHT22;3639;51.308;5.624;2023-06-10T13:56:54;31.80;59.40
7196;DHT22;3639;51.308;5.624;2023-06-10T13:59:20;31.90;58.70
7196;DHT22;3639;51.308;5.624;2023-06-10T14:01:46;32.00;59.50
7196;DHT22;3639;51.308;5.624;2023-06-10T14:04:12;32.10;59.30
7196;DHT22;3639;51.308;5.624;2023-06-10T14:06:38;32.20;58.70
7196;DHT22;3639;51.308;5.624;2023-06-10T14:09:03;32.20;59.20
7196;DHT22;3639;51.308;5.624;2023-06-10T14:11:29;31.90;58.50
7196;DHT22;3639;51.308;5.624;2023-06-10T14:13:55;31.80;59.00
7196;DHT22;3639;51.308;5.624;2023-06-10T14:16:24;31.70;59.10
7196;DHT22;3639;51.308;5.624;2023-06-10T14:18:50;31.90;58.50
7196;DHT22;3639;51.308;5.624;2023-06-10T14:21:18;31.80;58.30
7196;DHT22;3639;51.308;5.624;2023-06-10T14:23:44;31.80;58.70
7196;DHT22;3639;51.308;5.624;2023-06-10T14:26:10;31.80;58.70
7196;DHT22;3639;51.308;5.624;2023-06-10T14:28:36;31.70;58.40
7196;DHT22;3639;51.308;5.624;2023-06-10T14:31:02;31.50;59.00
7196;DHT22;3639;51.308;5.624;2023-06-10T14:33:27;31.30;58.60
7196;DHT22;3639;51.308;5.624;2023-06-10T14:35:53;31.20;59.40
7196;DHT22;3639;51.308;5.624;2023-06-10T14:38:19;31.20;59.60
7196;DHT22;3639;51.308;5.624;2023-06-10T14:40:44;31.40;59.80
7196;DHT22;3639;51.308;5.624;2023-06-10T14:43:10;31.50;58.40
7196;DHT22;3639;51.308;5.624;2023-06-10T14:45:39;31.70;59.20
7196;DHT22;3639;51.308;5.624;2023-06-10T14:48:06;31.90;57.50
7196;DHT22;3639;51.308;5.624;2023-06-10T14:50:32;31.90;59.60
7196;DHT22;3639;51.308;5.624;2023-06-10T14:53:01;32.00;58.40
7196;DHT22;3639;51.308;5.624;2023-06-10T14:55:27;32.00;58.40
7196;DHT22;3639;51.308;5.624;2023-06-10T14:57:52;32.00;58.30
7196;DHT22;3639;51.308;5.624;2023-06-10T15:00:18;31.80;57.50
7196;DHT22;3639;51.308;5.624;2023-06-10T15:02:47;31.70;57.90
7196;DHT22;3639;51.308;5.624;2023-06-10T15:05:14;31.30;57.90
7196;DHT22;3639;51.308;5.624;2023-06-10T15:07:44;31.10;58.70
7196;DHT22;3639;51.308;5.624;2023-06-10T15:10:10;30.90;59.00
7196;DHT22;3639;51.308;5.624;2023-06-10T15:12:36;30.90;60.10
7196;DHT22;3639;51.308;5.624;2023-06-10T15:15:02;31.00;60.20
7196;DHT22;3639;51.308;5.624;2023-06-10T15:17:28;31.00;60.30
7196;DHT22;3639;51.308;5.624;2023-06-10T15:19:54;31.00;60.70
7196;DHT22;3639;51.308;5.624;2023-06-10T15:22:20;31.10;60.70
7196;DHT22;3639;51.308;5.624;2023-06-10T15:24:45;31.10;61.70
7196;DHT22;3639;51.308;5.624;2023-06-10T15:27:11;31.20;61.70
7196;DHT22;3639;51.308;5.624;2023-06-10T15:29:37;31.20;61.60
7196;DHT22;3639;51.308;5.624;2023-06-10T15:32:02;31.20;61.40
7196;DHT22;3639;51.308;5.624;2023-06-10T15:34:28;31.20;61.90
7196;DHT22;3639;51.308;5.624;2023-06-10T15:36:54;31.20;60.90
7196;DHT22;3639;51.308;5.624;2023-06-10T15:39:19;31.20;61.40
7196;DHT22;3639;51.308;5.624;2023-06-10T15:41:45;31.20;62.50
7196;DHT22;3639;51.308;5.624;2023-06-10T15:44:11;31.20;63.00
7196;DHT22;3639;51.308;5.624;2023-06-10T15:46:37;31.10;61.10
7196;DHT22;3639;51.308;5.624;2023-06-10T15:49:03;31.00;62.30
7196;DHT22;3639;51.308;5.624;2023-06-10T15:51:28;31.00;61.50
7196;DHT22;3639;51.308;5.624;2023-06-10T15:53:54;31.00;61.70
7196;DHT22;3639;51.308;5.624;2023-06-10T15:56:20;31.10;62.00
7196;DHT22;3639;51.308;5.624;2023-06-10T15:58:46;31.10;59.50
7196;DHT22;3639;51.308;5.624;2023-06-10T16:01:12;31.00;61.10
7196;DHT22;3639;51.308;5.624;2023-06-10T16:03:38;31.00;59.90
7196;DHT22;3639;51.308;5.624;2023-06-10T16:06:03;30.90;58.50
7196;DHT22;3639;51.308;5.624;2023-06-10T16:08:29;30.90;57.50
7196;DHT22;3639;51.308;5.624;2023-06-10T16:10:55;30.80;58.50
7196;DHT22;3639;51.308;5.624;2023-06-10T16:13:20;30.80;60.20
7196;DHT22;3639;51.308;5.624;2023-06-10T16:15:46;30.90;58.80
7196;DHT22;3639;51.308;5.624;2023-06-10T16:18:11;31.00;58.40
7196;DHT22;3639;51.308;5.624;2023-06-10T16:20:37;31.10;58.30